Time;durP1;ratioP1;P1;durP2;ratioP2;P2;SDS_P1;SDS_P2;PMS_P1;PMS_P2;Temp;Humidity;BMP_temperature;BMP_pressure;BME280_temperature;BME280_humidity;BME280_pressure;Samples;Min_cycle;Max_cycle;Signal;HPM_P1;HPM_P2
2023/01/16 00:00:45;;;;;;;2.05;0.15;;;;;;;5.46;85.79;98789.63;10317128;28;20099;-70
2023/01/16 00:05:47;;;;;;;1.45;0.20;;;;;;;5.24;86.78;98764.16;10319701;28;20065;-70
2023/01/16 00:10:48;;;;;;;2.15;0.30;;;;;;;5.18;88.55;98753.25;10321231;28;20045;-71
2023/01/16 00:15:51;;;;;;;1.60;0.50;;;;;;;5.30;89.66;98739.91;10319683;28;20736;-70
2023/01/16 00:20:52;;;;;;;0.85;0.60;;;;;;;5.43;88.28;98731.78;10332781;28;20088;-69
2023/01/16 00:25:54;;;;;;;1.67;0.55;;;;;;;5.21;89.04;98713.44;10327222;28;20126;-71
2023/01/16 00:30:55;;;;;;;2.67;0.55;;;;;;;5.43;89.53;98697.47;10325677;28;20792;-70
2023/01/16 00:35:57;;;;;;;2.38;0.80;;;;;;;5.44;87.41;98693.06;10314404;28;20141;-70
2023/01/16 00:40:58;;;;;;;3.45;0.88;;;;;;;5.43;87.82;98675.53;10329253;28;20448;-70
2023/01/16 00:46:00;;;;;;;2.13;0.75;;;;;;;5.44;86.64;98664.03;10320671;28;20054;-69
2023/01/16 00:51:02;;;;;;;3.50;0.80;;;;;;;5.45;85.43;98653.34;10315267;28;20064;-71
2023/01/16 00:56:04;;;;;;;3.25;0.88;;;;;;;5.53;85.26;98651.84;10310945;28;20056;-70
2023/01/16 01:01:05;;;;;;;2.60;0.80;;;;;;;5.60;84.29;98645.06;10321007;28;20605;-71
2023/01/16 01:06:09;;;;;;;3.15;1.45;;;;;;;5.53;83.59;98622.81;10316745;28;20723;-71
2023/01/16 01:11:13;;;;;;;3.58;1.02;;;;;;;5.49;83.84;98630.16;10320342;28;20034;-70
2023/01/16 01:16:15;;;;;;;2.60;0.85;;;;;;;5.49;82.14;98631.00;10316260;28;20140;-71
2023/01/16 01:21:16;;;;;;;2.45;0.68;;;;;;;5.45;81.82;98613.75;10312756;28;20045;-69
2023/01/16 01:26:18;;;;;;;2.75;0.70;;;;;;;5.47;81.65;98609.16;10317762;28;20061;-70
2023/01/16 01:31:19;;;;;;;3.28;0.57;;;;;;;5.48;80.89;98596.81;10316099;28;20422;-70
2023/01/16 01:36:21;;;;;;;3.50;0.82;;;;;;;5.43;81.01;98585.81;10315651;28;20707;-70
2023/01/16 01:41:23;;;;;;;4.93;1.27;;;;;;;5.43;80.33;98576.09;10308087;28;20049;-70
2023/01/16 01:46:42;;;;;;;3.42;0.98;;;;;;;5.48;80.17;98567.81;10306455;28;20058;-68
2023/01/16 01:51:44;;;;;;;4.97;0.90;;;;;;;5.49;79.31;98565.03;10315399;28;20057;-69
2023/01/16 01:56:55;;;;;;;2.92;1.13;;;;;;;5.53;77.90;98551.56;10307103;28;20148;-70
2023/01/16 02:01:57;;;;;;;2.38;0.80;;;;;;;5.49;77.66;98535.13;10318210;28;20049;-69
2023/01/16 02:07:03;;;;;;;2.88;0.65;;;;;;;5.57;77.30;98534.47;10308081;28;20160;-70
2023/01/16 02:12:14;;;;;;;4.07;0.65;;;;;;;5.53;77.14;98523.34;10319066;28;20546;-70
2023/01/16 02:22:56;;;;;;;3.05;1.48;;;;;;;5.32;77.00;98500.50;10309067;28;20064;-68
2023/01/16 02:28:04;;;;;;;5.25;0.88;;;;;;;5.43;77.52;98501.38;10309040;28;20047;-69
2023/01/16 02:33:11;;;;;;;2.03;0.70;;;;;;;5.60;76.60;98486.69;10308029;28;20492;-70
2023/01/16 02:38:26;;;;;;;1.92;0.65;;;;;;;5.63;76.60;98476.72;10314891;28;20133;-70
2023/01/16 02:43:40;;;;;;;;;;;;;;;5.70;75.38;98468.25;10323938;28;20078;-70
2023/01/16 02:48:53;;;;;;;4.68;1.00;;;;;;;5.76;75.87;98450.03;10317961;28;19936;-68
2023/01/16 02:54:11;;;;;;;3.22;0.60;;;;;;;5.77;75.37;98438.50;10317562;28;20073;-70
2023/01/16 02:59:15;;;;;;;2.95;0.73;;;;;;;5.68;75.63;98436.69;10324209;28;20049;-68
2023/01/16 03:04:35;;;;;;;3.55;0.93;;;;;;;5.72;75.94;98406.44;10319547;28;20041;-70
2023/01/16 03:09:42;;;;;;;3.03;0.80;;;;;;;5.72;75.29;98398.50;10316966;28;20046;-70
2023/01/16 03:14:56;;;;;;;2.88;0.50;;;;;;;5.77;75.13;98384.88;10325101;28;20522;-70
2023/01/16 03:20:03;;;;;;;1.70;0.75;;;;;;;5.76;74.49;98365.56;10316020;28;20054;-69
2023/01/16 03:25:17;;;;;;;1.92;0.85;;;;;;;5.80;74.33;98351.09;10321452;28;20053;-68
2023/01/16 03:30:35;;;;;;;2.10;0.77;;;;;;;5.74;73.71;98332.38;10321865;28;20259;-69
2023/01/16 03:35:49;;;;;;;2.42;0.50;;;;;;;5.70;73.67;98323.03;10322295;28;20052;-68
2023/01/16 03:40:52;;;;;;;1.52;0.30;;;;;;;5.72;74.21;98321.09;10315661;28;20501;-68
2023/01/16 03:46:06;;;;;;;3.63;1.08;;;;;;;5.77;73.74;98313.59;10313742;28;20042;-68
2023/01/16 03:51:14;;;;;;;1.73;0.87;;;;;;;5.83;73.96;98298.00;10322231;28;20049;-69
2023/01/16 03:56:27;;;;;;;1.33;0.40;;;;;;;5.77;72.44;98287.19;10321762;28;20046;-69
2023/01/16 04:01:50;;;;;;;2.83;0.70;;;;;;;5.74;72.56;98269.00;10316850;28;20414;-69
2023/01/16 04:06:59;;;;;;;9.25;1.55;;;;;;;5.61;72.96;98262.19;10306273;28;20078;-67
2023/01/16 04:12:03;;;;;;;3.53;0.63;;;;;;;5.60;72.37;98257.91;10304813;28;20521;-69
2023/01/16 04:17:06;;;;;;;2.25;0.55;;;;;;;5.50;73.15;98246.50;10306215;28;20729;-69
2023/01/16 04:22:07;;;;;;;3.25;0.68;;;;;;;5.38;72.96;98223.91;10310049;28;20124;-69
2023/01/16 04:27:09;;;;;;;3.92;0.90;;;;;;;5.24;73.39;98212.78;10311099;28;20057;-69
2023/01/16 04:32:11;;;;;;;2.33;0.70;;;;;;;5.32;73.02;98194.44;10309830;28;20057;-67
2023/01/16 04:37:17;;;;;;;4.85;1.00;;;;;;;5.19;73.10;98199.16;10309185;28;20052;-67
2023/01/16 04:42:19;;;;;;;2.10;0.30;;;;;;;5.20;72.64;98190.28;10312320;28;20061;-66
2023/01/16 04:47:20;;;;;;;2.88;0.52;;;;;;;5.36;72.09;98180.97;10321514;28;20080;-68
2023/01/16 04:52:22;;;;;;;2.28;0.57;;;;;;;5.36;71.70;98162.50;10317374;28;20687;-68
2023/01/16 04:57:23;;;;;;;2.50;0.60;;;;;;;5.39;71.54;98147.25;10304992;28;20082;-69
2023/01/16 05:02:25;;;;;;;3.50;0.68;;;;;;;5.42;70.79;98130.28;10311298;28;20183;-69
2023/01/16 05:07:27;;;;;;;2.78;0.70;;;;;;;5.44;71.38;98115.97;10314396;28;20095;-64
2023/01/16 05:12:28;;;;;;;2.95;0.60;;;;;;;5.52;71.29;98102.06;10324929;28;20042;-69
2023/01/16 05:17:30;;;;;;;3.28;0.90;;;;;;;5.54;70.29;98075.50;10313530;28;20156;-67
2023/01/16 05:22:32;;;;;;;1.30;0.70;;;;;;;5.62;70.80;98071.19;10315723;28;20078;-69
2023/01/16 05:27:36;;;;;;;2.28;0.75;;;;;;;5.57;69.84;98060.25;10320528;28;20046;-67
2023/01/16 05:32:37;;;;;;;3.33;0.60;;;;;;;5.58;70.71;98046.03;10326531;28;20046;-67
2023/01/16 05:37:40;;;;;;;3.17;1.00;;;;;;;5.62;70.35;98036.03;10325668;28;20066;-67
2023/01/16 05:42:43;;;;;;;1.67;0.40;;;;;;;5.65;70.18;98026.00;10311869;28;20080;-68
2023/01/16 05:47:44;;;;;;;1.48;0.50;;;;;;;5.71;69.65;98000.03;10324327;28;20165;-69
2023/01/16 05:52:46;;;;;;;3.50;0.40;;;;;;;5.62;69.62;97978.81;10319799;28;20174;-68
2023/01/16 05:57:47;;;;;;;2.38;0.82;;;;;;;5.48;70.21;97961.66;10313286;28;20053;-67
2023/01/16 06:02:48;;;;;;;2.22;0.80;;;;;;;5.46;70.59;97954.84;10320120;28;20140;-68
2023/01/16 06:07:55;;;;;;;1.63;0.60;;;;;;;5.48;70.09;97945.00;10321345;28;20057;-69
2023/01/16 06:12:56;;;;;;;3.80;0.50;;;;;;;5.54;69.93;97935.66;10320667;28;20077;-71
2023/01/16 06:17:58;;;;;;;2.72;0.70;;;;;;;5.58;69.67;97916.72;10315648;28;20050;-68
2023/01/16 06:22:59;;;;;;;1.65;0.73;;;;;;;5.60;70.09;97906.88;10317268;28;20141;-67
2023/01/16 06:28:01;;;;;;;3.25;0.90;;;;;;;5.66;69.71;97906.28;10308208;28;20550;-70
2023/01/16 06:33:02;;;;;;;2.88;0.35;;;;;;;5.81;69.50;97890.72;10313589;28;20826;-69
2023/01/16 06:38:04;;;;;;;3.58;0.65;;;;;;;5.86;69.10;97878.91;10311228;28;20046;-68
2023/01/16 06:43:05;;;;;;;1.60;0.50;;;;;;;5.88;69.38;97867.19;10313090;28;20703;-70
2023/01/16 06:48:07;;;;;;;4.88;0.68;;;;;;;5.87;68.88;97854.97;10318859;28;20042;-70
2023/01/16 06:53:08;;;;;;;4.18;0.52;;;;;;;5.77;69.64;97843.66;10312499;28;20058;-69
2023/01/16 06:58:10;;;;;;;3.92;0.70;;;;;;;5.72;70.27;97832.72;10316703;28;20101;-69
2023/01/16 07:03:12;;;;;;;3.28;0.50;;;;;;;5.44;71.09;97811.72;10315092;28;20147;-69
2023/01/16 07:08:14;;;;;;;1.73;0.30;;;;;;;5.39;70.67;97812.16;10314457;28;20053;-69
2023/01/16 07:13:16;;;;;;;1.77;0.60;;;;;;;5.26;70.84;97809.06;10312038;28;20050;-68
2023/01/16 07:23:41;;;;;;;2.13;0.50;;;;;;;5.29;71.38;97795.56;10308452;28;20050;-69
2023/01/16 07:28:43;;;;;;;1.55;0.60;;;;;;;5.27;71.04;97779.91;10311109;28;20127;-68
2023/01/16 07:33:44;;;;;;;2.22;0.73;;;;;;;5.32;70.38;97760.97;10315526;28;20506;-71
2023/01/16 07:38:45;;;;;;;3.53;0.73;;;;;;;5.36;70.29;97749.16;10319525;28;20136;-70
2023/01/16 07:43:47;;;;;;;2.83;1.15;;;;;;;5.42;70.06;97737.13;10321563;28;20069;-68
2023/01/16 07:48:51;;;;;;;3.50;1.05;;;;;;;5.45;69.44;97728.91;10325204;28;20060;-69
2023/01/16 07:53:52;;;;;;;1.60;0.38;;;;;;;5.46;69.16;97720.03;10313860;28;20117;-69
2023/01/16 07:58:54;;;;;;;1.48;0.40;;;;;;;5.53;69.51;97709.69;10323061;28;21063;-67
2023/01/16 08:03:56;;;;;;;1.67;0.90;;;;;;;5.50;69.23;97695.00;10318964;28;20053;-68
2023/01/16 08:08:57;;;;;;;2.88;0.73;;;;;;;5.54;68.85;97680.53;10313415;28;20610;-66
2023/01/16 08:13:59;;;;;;;3.03;0.65;;;;;;;5.58;68.52;97670.47;10315712;28;20474;-69
2023/01/16 08:19:01;;;;;;;2.05;0.57;;;;;;;5.57;68.70;97659.09;10319416;28;20128;-69
2023/01/16 08:24:05;;;;;;;2.72;0.90;;;;;;;5.63;68.93;97645.28;10355910;28;20053;-68
2023/01/16 08:29:10;;;;;;;2.87;1.00;;;;;;;5.63;67.88;97636.50;10329484;28;20209;-68
2023/01/16 08:34:11;;;;;;;2.35;0.60;;;;;;;5.61;67.73;97628.75;10315112;28;20196;-70
2023/01/16 08:39:13;;;;;;;3.58;0.70;;;;;;;5.65;67.76;97606.34;10316119;28;20050;-68
2023/01/16 08:54:55;;;;;;;2.10;1.25;;;;;;;5.66;66.83;97557.88;10310952;28;20477;-68
2023/01/16 08:59:57;;;;;;;3.72;0.70;;;;;;;5.73;65.84;97549.31;10307953;28;20273;-69
2023/01/16 09:04:58;;;;;;;3.50;0.70;;;;;;;5.75;65.60;97523.56;10311373;28;20057;-68
2023/01/16 09:10:00;;;;;;;4.78;1.48;;;;;;;5.64;65.42;97527.34;10310269;28;20454;-65
2023/01/16 09:15:02;;;;;;;2.17;0.40;;;;;;;5.51;66.43;97519.03;10308892;28;20064;-67
2023/01/16 09:20:05;;;;;;;2.45;0.60;;;;;;;5.60;66.17;97515.44;10302976;28;20144;-70
2023/01/16 09:25:07;;;;;;;2.38;0.63;;;;;;;5.60;66.22;97483.75;10301593;28;20210;-70
2023/01/16 09:30:09;;;;;;;3.90;1.00;;;;;;;5.57;66.81;97497.28;10302298;28;21682;-69
2023/01/16 09:35:11;;;;;;;1.80;0.50;;;;;;;5.60;67.13;97510.16;10303241;28;20050;-66
2023/01/16 09:40:16;;;;;;;2.33;0.90;;;;;;;5.54;67.36;97510.78;10312811;28;20088;-69
2023/01/16 09:45:22;;;;;;;1.70;0.50;;;;;;;5.46;67.49;97493.97;10303387;28;20068;-67
2023/01/16 09:50:49;;;;;;;3.78;0.88;;;;;;;5.60;67.68;97507.50;10295639;28;20045;-69
2023/01/16 10:01:20;;;;;;;2.75;0.55;;;;;;;5.64;69.57;97480.66;10300540;28;20063;-69
2023/01/16 10:06:26;;;;;;;2.85;0.50;;;;;;;5.61;69.28;97472.22;10302716;28;20140;-63
2023/01/16 10:11:45;;;;;;;1.60;0.40;;;;;;;5.58;69.55;97460.19;10299537;28;20060;-69
2023/01/16 10:17:16;;;;;;;1.70;0.73;;;;;;;5.54;69.06;97445.66;10303279;28;20497;-67
2023/01/16 10:22:34;;;;;;;1.23;0.43;;;;;;;5.49;68.48;97437.41;10297803;28;20062;-63
2023/01/16 10:28:19;;;;;;;2.28;0.70;;;;;;;5.57;68.50;97436.59;10306399;28;21465;-67
2023/01/16 10:33:26;;;;;;;1.35;0.40;;;;;;;5.53;68.69;97430.81;10284704;28;20053;-68
2023/01/16 10:38:45;;;;;;;2.92;0.47;;;;;;;5.56;69.83;97421.75;10292194;28;20754;-68
2023/01/16 10:49:29;;;;;;;0.93;0.50;;;;;;;5.31;72.15;97414.59;10300052;28;20054;-67
2023/01/16 10:54:31;;;;;;;1.10;0.47;;;;;;;5.20;73.37;97395.59;10308874;28;20627;-67
2023/01/16 10:59:34;;;;;;;2.55;0.50;;;;;;;5.27;74.44;97386.06;10306633;28;20045;-68
2023/01/16 11:04:35;;;;;;;2.42;0.63;;;;;;;5.25;75.96;97375.66;10258520;28;20050;-67
2023/01/16 11:09:37;;;;;;;2.08;1.27;;;;;;;5.20;76.96;97366.59;10307575;28;20058;-66
2023/01/16 11:20:03;;;;;;;1.67;0.70;;;;;;;4.96;80.34;97358.41;10308258;28;20148;-69
2023/01/16 11:25:06;;;;;;;1.75;0.77;;;;;;;5.02;80.47;97337.69;10313054;28;20053;-67
2023/01/16 11:30:18;;;;;;;2.33;1.23;;;;;;;4.89;81.61;97338.94;10305060;28;20089;-67
2023/01/16 11:35:20;;;;;;;1.48;0.60;;;;;;;4.81;81.62;97320.47;10306654;28;20122;-66
2023/01/16 11:40:25;;;;;;;2.28;0.63;;;;;;;4.75;82.23;97292.94;10313848;28;20057;-65
2023/01/16 11:50:50;;;;;;;2.22;0.63;;;;;;;4.89;81.93;97265.13;10314590;28;20125;-66
2023/01/16 11:55:54;;;;;;;;;;;;;;;5.10;81.04;97246.25;10312692;28;20057;-65
2023/01/16 12:01:04;;;;;;;2.65;0.77;;;;;;;5.25;79.90;97227.97;10308921;28;20020;-68
2023/01/16 12:06:19;;;;;;;2.20;1.08;;;;;;;5.45;78.54;97217.09;10311507;28;20056;-68
2023/01/16 12:11:28;;;;;;;;;;;;;;;5.50;78.00;97193.69;10310865;28;20054;-67
2023/01/16 12:16:48;;;;;;;1.63;0.60;;;;;;;6.13;76.11;97172.78;10308386;28;20374;-68
2023/01/16 12:22:11;;;;;;;2.58;0.60;;;;;;;5.94;74.83;97163.41;10308352;28;20524;-68
2023/01/16 12:27:38;;;;;;;1.88;1.17;;;;;;;5.76;75.63;97153.88;10312417;28;20534;-62
2023/01/16 12:33:12;;;;;;;1.27;0.65;;;;;;;5.80;74.94;97142.00;10306885;28;20134;-73
2023/01/16 12:38:27;;;;;;;1.42;0.73;;;;;;;5.65;74.86;97112.84;10309488;28;20545;-72
2023/01/16 12:43:51;;;;;;;1.35;0.47;;;;;;;5.94;74.15;97103.50;10307534;28;20795;-62
2023/01/16 12:49:20;;;;;;;2.88;0.45;;;;;;;6.11;73.42;97095.53;10293812;28;20060;-68
2023/01/16 12:54:43;;;;;;;1.40;0.60;;;;;;;8.14;66.15;97061.31;10311006;28;20058;-67
2023/01/16 12:59:53;;;;;;;3.38;1.90;;;;;;;8.95;61.34;97051.53;10304426;28;20309;-67
2023/01/16 13:05:02;;;;;;;1.90;0.50;;;;;;;13.68;48.80;97032.63;10310928;28;21327;-66
2023/01/16 13:15:37;;;;;;;0.80;0.45;;;;;;;12.55;47.73;96986.38;10305513;28;20049;-68
2023/01/16 13:20:38;;;;;;;0.65;0.20;;;;;;;9.90;54.41;96986.31;10305638;28;20054;-65
2023/01/16 13:25:46;;;;;;;0.85;0.40;;;;;;;8.30;58.57;96978.13;10306335;28;20145;-66
2023/01/16 13:30:50;;;;;;;1.65;0.40;;;;;;;7.51;61.67;96954.25;10310955;28;20054;-65
2023/01/16 13:36:10;;;;;;;0.98;0.32;;;;;;;7.30;62.83;96947.06;10313209;28;20125;-65
2023/01/16 13:41:17;;;;;;;1.80;0.30;;;;;;;7.18;65.13;96938.75;10315883;28;20052;-67
2023/01/16 13:46:20;;;;;;;3.20;0.70;;;;;;;7.05;66.17;96932.25;10314428;28;20060;-64
2023/01/16 13:51:25;;;;;;;1.95;0.50;;;;;;;6.98;66.84;96912.84;10314608;28;20069;-69
2023/01/16 13:56:28;;;;;;;;;;;;;;;6.95;65.92;96915.03;10312174;28;20056;-71
2023/01/16 14:01:39;;;;;;;0.93;0.40;;;;;;;7.01;65.67;96890.50;10312476;28;19961;-68
2023/01/16 14:06:47;;;;;;;1.38;0.43;;;;;;;7.01;65.12;96879.91;10317118;28;20438;-67
2023/01/16 14:12:17;;;;;;;2.63;0.63;;;;;;;6.88;63.65;96870.00;10315214;28;20162;-68
2023/01/16 14:17:21;;;;;;;0.73;0.30;;;;;;;6.90;64.64;96870.63;10312172;28;20697;-67
2023/01/16 14:27:41;;;;;;;0.75;0.20;;;;;;;6.71;66.17;96843.75;10310040;28;20120;-66
2023/01/16 14:32:50;;;;;;;2.28;0.32;;;;;;;6.73;67.32;96831.16;10307107;28;20050;-68
2023/01/16 14:38:02;;;;;;;0.85;0.30;;;;;;;6.75;69.64;96822.22;10300793;28;20485;-64
2023/01/16 14:59:58;;;;;;;1.77;0.20;;;;;;;6.75;67.07;96741.09;10313407;28;20060;-66
2023/01/16 15:05:50;;;;;;;2.53;0.30;;;;;;;6.68;67.17;96730.47;10295985;28;20716;-68
2023/01/16 15:10:53;;;;;;;2.30;0.30;;;;;;;6.67;67.75;96718.25;10271462;28;20057;-66
2023/01/16 15:16:08;;;;;;;0.30;0.10;;;;;;;6.71;67.75;96700.19;10319025;28;20858;-66
2023/01/16 15:26:42;;;;;;;1.85;0.32;;;;;;;6.80;68.92;96666.53;10310587;28;20509;-66
2023/01/16 15:31:51;;;;;;;1.92;0.38;;;;;;;6.69;68.75;96673.94;10305148;28;20628;-66
2023/01/16 15:36:54;;;;;;;2.45;0.95;;;;;;;6.71;69.55;96669.31;10310356;28;20057;-65
2023/01/16 15:47:27;;;;;;;1.35;0.20;;;;;;;6.28;75.60;96661.28;10305462;28;20145;-66
2023/01/16 15:52:30;;;;;;;2.05;0.40;;;;;;;6.07;78.47;96685.78;10304320;28;20216;-63
2023/01/16 15:57:33;;;;;;;0.25;0.20;;;;;;;5.66;81.68;96689.63;10307606;28;20069;-65
2023/01/16 16:02:41;;;;;;;1.33;0.20;;;;;;;5.48;85.85;96683.88;10303432;28;20076;-68
2023/01/16 16:07:43;;;;;;;0.80;0.20;;;;;;;5.49;87.52;96662.59;10302625;28;20066;-64
2023/01/16 16:12:44;;;;;;;0.40;0.20;;;;;;;5.38;88.30;96649.84;10302546;28;20061;-67
2023/01/16 16:17:59;;;;;;;0.38;0.20;;;;;;;5.29;89.49;96622.72;10303501;28;20133;-64
2023/01/16 16:23:25;;;;;;;1.08;0.38;;;;;;;5.26;89.69;96627.53;10304077;28;20053;-64
2023/01/16 16:28:35;;;;;;;1.67;0.40;;;;;;;5.24;91.04;96640.91;10305468;28;20700;-65
2023/01/16 16:33:37;;;;;;;0.43;0.22;;;;;;;5.24;91.38;96611.88;10301160;28;20045;-64
2023/01/16 16:38:38;;;;;;;1.60;0.38;;;;;;;5.26;92.74;96582.69;10299956;28;20050;-67
2023/01/16 16:43:49;;;;;;;1.25;0.22;;;;;;;5.32;92.17;96584.63;10309327;28;20045;-68
2023/01/16 16:48:51;;;;;;;0.68;0.35;;;;;;;5.41;91.86;96580.09;10306380;28;20637;-67
2023/01/16 16:53:58;;;;;;;1.63;0.40;;;;;;;5.46;91.82;96585.63;10302072;28;20054;-66
2023/01/16 16:58:59;;;;;;;0.50;0.15;;;;;;;5.48;93.08;96573.09;10300564;28;20097;-64
2023/01/16 17:04:16;;;;;;;0.70;0.10;;;;;;;5.43;92.50;96576.25;10308419;28;20123;-69
2023/01/16 17:09:18;;;;;;;0.63;0.30;;;;;;;5.43;92.70;96586.00;10307570;28;20140;-66
2023/01/16 17:14:19;;;;;;;0.98;0.20;;;;;;;5.47;92.79;96566.16;10288841;28;20085;-67
2023/01/16 17:19:31;;;;;;;0.70;0.17;;;;;;;5.45;91.34;96557.59;10311585;28;20153;-69
2023/01/16 17:24:33;;;;;;;0.90;0.20;;;;;;;5.38;92.11;96556.72;10315159;28;20053;-66
2023/01/16 17:29:36;;;;;;;1.38;0.40;;;;;;;5.35;93.07;96562.34;10292619;28;20060;-66
2023/01/16 17:34:37;;;;;;;1.45;0.63;;;;;;;5.29;94.06;96575.25;10319349;28;20194;-67
2023/01/16 17:39:39;;;;;;;1.15;0.40;;;;;;;5.21;94.15;96562.16;10308674;28;21165;-65
2023/01/16 18:00:41;;;;;;;1.30;0.30;;;;;;;5.20;93.76;96571.06;10311910;28;20065;-63
2023/01/16 18:05:42;;;;;;;0.70;0.30;;;;;;;5.23;94.03;96586.50;10312683;28;20843;-64
2023/01/16 18:10:44;;;;;;;0.40;0.20;;;;;;;5.32;93.39;96598.63;10316164;28;20274;-64
2023/01/16 18:26:33;;;;;;;1.33;0.45;;;;;;;5.30;90.44;96602.44;10317484;28;20478;-61
2023/01/16 18:31:34;;;;;;;0.88;0.32;;;;;;;5.33;90.48;96612.63;10312482;28;20140;-62
2023/01/16 18:36:36;;;;;;;1.42;0.50;;;;;;;5.35;89.89;96615.91;10309865;28;20120;-62
2023/01/16 19:02:58;;;;;;;0.88;0.20;;;;;;;5.16;86.72;96648.84;10308033;28;20107;-65
2023/01/16 19:08:02;;;;;;;0.40;0.20;;;;;;;5.16;87.00;96638.31;10289769;28;20065;-63
2023/01/16 19:13:08;;;;;;;0.95;0.28;;;;;;;5.18;86.70;96636.34;10304301;28;20053;-63
2023/01/16 19:18:09;;;;;;;1.25;0.40;;;;;;;5.09;85.86;96627.66;10308414;28;20064;-63
2023/01/16 19:23:10;;;;;;;0.40;0.15;;;;;;;5.08;86.07;96627.84;10308514;28;20179;-63
2023/01/16 19:28:12;;;;;;;0.40;0.20;;;;;;;5.02;86.09;96636.47;10308386;28;20061;-64
2023/01/16 19:33:13;;;;;;;0.15;0.13;;;;;;;5.01;86.47;96650.63;10317739;28;20050;-63
2023/01/16 19:38:15;;;;;;;0.75;0.25;;;;;;;4.99;86.07;96652.63;10311478;28;20184;-63
2023/01/16 19:48:38;;;;;;;0.70;0.10;;;;;;;4.85;87.47;96668.22;10311529;28;20057;-64
2023/01/16 19:53:39;;;;;;;0.38;0.20;;;;;;;4.79;87.77;96682.09;10311919;28;20168;-63
2023/01/16 19:58:41;;;;;;;0.63;0.30;;;;;;;4.83;87.37;96688.63;10314261;28;20057;-64
2023/01/16 20:03:45;;;;;;;0.38;0.20;;;;;;;4.81;86.30;96689.81;10309467;28;20180;-63
2023/01/16 20:08:46;;;;;;;0.50;0.10;;;;;;;4.82;84.50;96702.81;10310232;28;21150;-63
2023/01/16 20:13:52;;;;;;;0.40;0.10;;;;;;;4.82;84.40;96705.47;10309665;28;20631;-65
2023/01/16 20:18:53;;;;;;;0.45;0.20;;;;;;;4.78;84.30;96709.44;10313208;28;20081;-65
2023/01/16 20:23:56;;;;;;;1.13;0.20;;;;;;;4.84;84.62;96732.44;10310412;28;20080;-63
2023/01/16 20:28:58;;;;;;;0.32;0.22;;;;;;;4.77;84.14;96713.03;10308049;28;20046;-62
2023/01/16 20:33:59;;;;;;;0.38;0.30;;;;;;;4.87;83.91;96718.13;10307637;28;20220;-63
2023/01/16 20:39:02;;;;;;;0.40;0.10;;;;;;;4.76;84.20;96748.31;10306145;28;20054;-63
2023/01/16 20:49:31;;;;;;;0.70;0.20;;;;;;;4.72;85.29;96733.84;10306502;28;20064;-64
2023/01/16 20:54:32;;;;;;;0.30;0.13;;;;;;;4.77;84.78;96744.66;10304344;28;20050;-64
2023/01/16 20:59:34;;;;;;;0.57;0.30;;;;;;;4.79;84.03;96737.44;10306553;28;20049;-64
2023/01/16 21:04:36;;;;;;;0.63;0.32;;;;;;;4.82;83.84;96758.16;10310344;28;20054;-66
2023/01/16 21:09:38;;;;;;;0.93;0.40;;;;;;;4.83;84.57;96737.91;10315736;28;20046;-64
2023/01/16 21:14:39;;;;;;;0.98;0.40;;;;;;;4.76;85.79;96764.13;10314141;28;20417;-64
2023/01/16 21:25:04;;;;;;;1.08;1.05;;;;;;;4.60;88.34;96786.91;10309920;28;20048;-65
2023/01/16 21:30:09;;;;;;;0.65;0.43;;;;;;;4.65;88.48;96796.09;10306079;28;20045;-65
2023/01/16 21:35:12;;;;;;;1.15;0.60;;;;;;;4.72;89.13;96802.34;10306004;28;20092;-65
2023/01/16 21:40:16;;;;;;;0.70;0.40;;;;;;;4.71;88.74;96819.94;10310564;28;20050;-68
2023/01/16 21:50:44;;;;;;;2.15;0.77;;;;;;;4.63;89.43;96834.97;10315676;28;20061;-65
2023/01/16 21:55:53;;;;;;;0.70;0.40;;;;;;;4.64;88.96;96839.25;10305844;28;20595;-64
2023/01/16 22:00:55;;;;;;;1.50;0.60;;;;;;;4.75;88.50;96857.34;10302110;28;20098;-64
2023/01/16 22:05:58;;;;;;;1.10;0.60;;;;;;;4.73;88.36;96860.13;10298208;28;20512;-65
2023/01/16 22:21:52;;;;;;;0.77;0.40;;;;;;;4.83;84.51;96901.28;10305825;28;20060;-64
2023/01/16 22:26:53;;;;;;;1.65;0.70;;;;;;;4.77;85.00;96913.31;10309896;28;20497;-64
2023/01/16 22:31:56;;;;;;;0.82;0.40;;;;;;;4.80;83.85;96918.25;10316136;28;20045;-65
2023/01/16 22:36:58;;;;;;;1.70;0.80;;;;;;;4.87;84.01;96936.84;10310753;28;20058;-65
2023/01/16 22:41:59;;;;;;;1.25;0.98;;;;;;;4.85;83.98;96934.38;10298409;28;20066;-67
2023/01/16 22:47:00;;;;;;;2.33;0.88;;;;;;;4.89;83.64;96935.66;10316971;28;20759;-65
2023/01/16 22:52:02;;;;;;;1.83;1.10;;;;;;;4.85;84.78;96950.19;10314232;28;20153;-64
2023/01/16 22:57:04;;;;;;;1.58;1.00;;;;;;;4.86;84.97;96948.38;10314212;28;20050;-65
2023/01/16 23:02:07;;;;;;;2.47;1.23;;;;;;;4.90;84.75;96963.69;10306413;28;20147;-67
2023/01/16 23:07:09;;;;;;;2.33;1.20;;;;;;;4.78;84.25;96960.56;10327001;28;20848;-65
2023/01/16 23:12:11;;;;;;;2.50;1.45;;;;;;;4.78;83.72;96973.75;10336109;28;20111;-65
2023/01/16 23:17:12;;;;;;;1.80;1.02;;;;;;;4.66;83.41;96958.47;10325124;28;20142;-66
2023/01/16 23:22:14;;;;;;;1.63;1.08;;;;;;;4.58;82.36;96956.66;10331451;28;20054;-65
2023/01/16 23:27:15;;;;;;;2.05;1.00;;;;;;;4.63;83.16;96971.97;10317028;28;20123;-65
2023/01/16 23:32:17;;;;;;;2.00;1.02;;;;;;;4.65;81.99;96968.16;10321414;28;20047;-65
2023/01/16 23:37:18;;;;;;;3.20;1.00;;;;;;;4.65;82.73;96993.69;10320505;28;20176;-65
2023/01/16 23:47:42;;;;;;;1.85;1.40;;;;;;;4.72;81.28;97015.78;10320720;28;20115;-65
2023/01/16 23:52:43;;;;;;;3.20;1.70;;;;;;;4.72;80.36;97021.84;10318934;28;20057;-65
2023/01/16 23:57:45;;;;;;;1.75;1.13;;;;;;;4.67;80.13;97033.88;10325242;28;20046;-65
